Other Surface Observations
Issued by NWS Great Falls, MT

Home | Current Version | Previous Version | Text Only | Print | Product List | Glossary On
Versions: 1 2 3 4 5 6 7 8 9 10 11 12 13 14 15 16 17 18 19 20 21 22 23 24 25 26 27 28 29 30 31 32 33 34 35 36 37 38 39 40 41 42 43 44 45 46 47 48 49 50
000
SXUS55 KTFX 032206
OSOTFX

AREA AWOS OBSERVATIONS
NATIONAL WEATHER SERVICE GREAT FALLS MT
0308 PM MDT Thu Sep 03 2015

METAR K6S8 032055Z AUTO 03009KT 40SM 25/03 A2983 RMK A01 T02500027
METAR K7S0 032055Z AUTO 12003KT 10SM 11/09 A3002 RMK A01 T01110094
METAR K7S1 032055Z AUTO 31010KT 25SM 21/02 A2986 RMK A01 T02110022
METAR K97M 032055Z AUTO 34005KT 40SM 28/06 A2980 RMK A01 T02830055
METAR K9S2 032055Z AUTO 34017KT 40SM 24/06 A2980 RMK A01 T02440055
METAR K9S5 032055Z AUTO 32009KT 25SM 23/M04 A2984 RMK A01 T02331038
METAR KM75 032055Z AUTO 36004KT 40SM 26/04 A2980 RMK A01 T02550038
METAR KRPX 032055Z AUTO 04007KT 40SM 24/02 A2977 RMK A01 T02380022
METAR KS01 032055Z AUTO 28004KT 40SM 14/10 A2998 RMK A01 T01380100
METAR KS34 032055Z AUTO 11003KT 25SM 17/04 A2994 RMK A01 T01720044
METAR KTHM 032055Z AUTO 10003KT 40SM 16/07 A2997 RMK A01 T01550072



USA.gov is the U.S. government's official web portal to all federal, state and local government web resources and services.